createdAt,value
2022-11-23T00:00:49.614Z,75.88
2022-11-23T00:03:22.160Z,75.98
2022-11-23T00:05:54.960Z,76.16
2022-11-23T00:08:28.918Z,76.09
2022-11-23T00:11:01.960Z,76.22
2022-11-23T00:13:35.186Z,75.98
2022-11-23T00:16:07.971Z,75.83
2022-11-23T00:18:40.771Z,75.98
2022-11-23T00:21:14.295Z,75.99
2022-11-23T00:23:48.245Z,76.16
2022-11-23T00:26:22.672Z,75.96
2022-11-23T00:28:55.287Z,75.87
2022-11-23T00:31:32.569Z,76.52
2022-11-23T00:34:05.152Z,76.41
2022-11-23T00:36:38.200Z,76.29
2022-11-23T00:39:12.423Z,76.34
2022-11-23T00:41:47.052Z,76.48
2022-11-23T00:44:19.633Z,75.97
2022-11-23T00:46:52.357Z,76.54
2022-11-23T00:49:24.947Z,76.94
2022-11-23T00:51:59.138Z,75.86
2022-11-23T00:54:33.220Z,76.13
2022-11-23T00:57:06.225Z,76.58
2022-11-23T00:59:39.028Z,76.71
2022-11-23T01:02:11.685Z,76.38
2022-11-23T01:04:44.420Z,76.17
2022-11-23T01:07:17.414Z,76.22
2022-11-23T01:09:51.460Z,76.18
2022-11-23T01:12:26.238Z,76.30
2022-11-23T01:14:58.869Z,76.21
2022-11-23T01:17:31.541Z,75.70
2022-11-23T01:20:04.510Z,76.07
2022-11-23T01:22:37.154Z,76.20
2022-11-23T01:25:11.261Z,76.25
2022-11-23T01:27:44.621Z,76.13
2022-11-23T01:30:17.407Z,76.10
2022-11-23T01:32:50.023Z,76.16
2022-11-23T01:35:24.215Z,76.17
2022-11-23T01:37:57.823Z,76.48
2022-11-23T01:40:31.829Z,75.59
2022-11-23T01:43:08.249Z,76.46
2022-11-23T01:45:42.401Z,76.35
2022-11-23T01:48:17.518Z,76.10
2022-11-23T01:50:52.616Z,75.91
2022-11-23T01:53:26.127Z,75.80
2022-11-23T01:56:00.964Z,75.72
2022-11-23T01:58:35.246Z,76.12
2022-11-23T02:01:10.069Z,76.03
2022-11-23T02:03:47.792Z,76.34
2022-11-23T02:06:23.934Z,76.19
2022-11-23T02:08:56.856Z,76.19
2022-11-23T02:11:30.913Z,76.02
2022-11-23T02:14:03.534Z,76.01
2022-11-23T02:16:36.997Z,76.15
2022-11-23T02:19:13.803Z,75.50
2022-11-23T02:21:46.498Z,75.94
2022-11-23T02:24:21.704Z,75.79
2022-11-23T02:26:56.078Z,75.69
2022-11-23T02:29:29.850Z,75.67
2022-11-23T02:32:06.482Z,75.80
2022-11-23T02:34:39.243Z,75.68
2022-11-23T02:37:11.851Z,75.92
2022-11-23T02:39:47.177Z,76.02
2022-11-23T02:45:18.464Z,75.96
2022-11-23T02:47:53.069Z,75.69
2022-11-23T02:50:26.018Z,76.00
2022-11-23T02:52:58.734Z,75.91
2022-11-23T02:55:31.339Z,75.95
2022-11-23T02:58:08.169Z,75.79
2022-11-23T03:00:40.858Z,76.12
2022-11-23T03:03:13.532Z,76.30
2022-11-23T03:05:46.137Z,76.59
2022-11-23T03:08:18.982Z,76.58
2022-11-23T03:10:52.157Z,76.37
2022-11-23T03:13:27.296Z,76.69
2022-11-23T03:16:00.098Z,76.54
2022-11-23T03:18:32.713Z,76.72
2022-11-23T03:21:05.974Z,76.71
2022-11-23T03:23:38.770Z,76.71
2022-11-23T03:26:13.736Z,76.49
2022-11-23T03:28:59.514Z,76.74
2022-11-23T03:31:35.167Z,76.53
2022-11-23T03:34:07.794Z,76.60
2022-11-23T03:36:41.414Z,76.31
2022-11-23T03:39:14.678Z,76.47
2022-11-23T03:41:57.218Z,76.49
2022-11-23T03:44:37.861Z,76.83
2022-11-23T03:47:12.090Z,76.42
2022-11-23T03:49:44.653Z,76.82
2022-11-23T03:52:17.498Z,76.60
2022-11-23T03:54:50.578Z,76.51
2022-11-23T03:57:23.480Z,76.20
2022-11-23T03:59:57.377Z,76.14
2022-11-23T04:02:30.552Z,76.50
2022-11-23T04:05:13.288Z,76.73
2022-11-23T04:08:05.061Z,76.72
2022-11-23T04:10:37.838Z,76.81
2022-11-23T04:13:20.589Z,76.46
2022-11-23T04:15:54.814Z,76.66
2022-11-23T04:18:30.023Z,76.17
2022-11-23T04:21:02.726Z,76.41
2022-11-23T04:23:35.921Z,76.37
2022-11-23T04:26:10.494Z,76.44
2022-11-23T04:28:46.844Z,76.59
2022-11-23T04:31:21.294Z,77.08
2022-11-23T04:34:05.867Z,76.71
2022-11-23T04:36:39.389Z,76.79
2022-11-23T04:39:14.391Z,76.71
2022-11-23T04:42:13.616Z,76.60
2022-11-23T04:44:52.526Z,76.96
2022-11-23T04:47:26.943Z,76.94
2022-11-23T04:50:02.040Z,77.28
2022-11-23T04:52:34.902Z,77.15
2022-11-23T04:55:10.688Z,77.41
2022-11-23T04:57:51.261Z,77.67
2022-11-23T05:00:24.173Z,77.43
2022-11-23T05:03:02.043Z,76.92
2022-11-23T05:05:38.926Z,77.22
2022-11-23T05:08:11.494Z,76.99
2022-11-23T05:11:07.328Z,77.11
2022-11-23T05:13:40.229Z,77.06
2022-11-23T05:16:13.082Z,77.40
2022-11-23T05:18:47.699Z,77.03
2022-11-23T05:21:20.293Z,77.24
2022-11-23T05:23:53.959Z,77.17
2022-11-23T05:26:26.584Z,77.11
2022-11-23T05:29:00.815Z,77.10
2022-11-23T05:31:33.709Z,77.13
2022-11-23T05:34:09.986Z,77.11
2022-11-23T05:36:50.423Z,77.22
2022-11-23T05:39:24.786Z,76.92
2022-11-23T05:41:58.860Z,77.30
2022-11-23T05:44:39.177Z,76.86
2022-11-23T05:47:17.569Z,77.14
2022-11-23T05:49:51.706Z,77.00
2022-11-23T05:52:28.347Z,77.42
2022-11-23T05:55:01.038Z,77.38
2022-11-23T05:57:34.877Z,76.79
2022-11-23T06:00:10.552Z,77.25
2022-11-23T06:02:45.712Z,76.98
2022-11-23T06:05:20.400Z,77.48
2022-11-23T06:07:55.462Z,77.07
2022-11-23T06:10:32.479Z,76.99
2022-11-23T06:13:05.395Z,76.94
2022-11-23T06:15:39.526Z,77.11
2022-11-23T06:18:12.634Z,76.84
2022-11-23T06:20:52.884Z,77.38
2022-11-23T06:23:25.593Z,76.94
2022-11-23T06:26:00.823Z,77.19
2022-11-23T06:28:37.362Z,77.17
2022-11-23T06:31:13.439Z,76.73
2022-11-23T06:33:47.041Z,76.94
2022-11-23T06:36:21.228Z,76.95
2022-11-23T06:38:56.039Z,76.89
2022-11-23T06:41:32.382Z,76.66
2022-11-23T06:44:06.961Z,76.77
2022-11-23T06:46:45.231Z,76.80
2022-11-23T06:49:19.820Z,76.71
2022-11-23T06:52:04.187Z,76.31
2022-11-23T06:54:36.857Z,76.62
2022-11-23T06:57:09.841Z,76.52
2022-11-23T06:59:45.741Z,76.63
2022-11-23T07:02:20.200Z,76.34
2022-11-23T07:04:53.113Z,76.84
2022-11-23T07:07:27.504Z,76.62
2022-11-23T07:10:09.947Z,76.79
2022-11-23T07:12:50.330Z,76.50
2022-11-23T07:15:26.075Z,76.29
2022-11-23T07:17:59.302Z,76.54
2022-11-23T07:20:31.956Z,76.33
2022-11-23T07:23:06.752Z,76.35
2022-11-23T07:25:39.620Z,76.49
2022-11-23T07:28:13.429Z,76.38
2022-11-23T07:30:46.069Z,76.44
2022-11-23T07:33:23.648Z,76.82
2022-11-23T07:35:57.215Z,76.62
2022-11-23T07:38:31.524Z,76.50
2022-11-23T07:41:05.869Z,76.61
2022-11-23T07:43:55.868Z,76.23
2022-11-23T07:46:28.532Z,76.90
2022-11-23T07:49:02.254Z,76.80
2022-11-23T07:51:37.707Z,76.69
2022-11-23T07:54:11.933Z,76.74
2022-11-23T07:56:44.825Z,77.04
2022-11-23T07:59:17.416Z,76.38
2022-11-23T08:01:55.613Z,76.45
2022-11-23T08:04:31.227Z,76.29
2022-11-23T08:07:04.304Z,76.15
2022-11-23T08:09:40.673Z,76.42
2022-11-23T08:12:13.228Z,76.20
2022-11-23T08:14:45.965Z,76.60
2022-11-23T08:17:18.525Z,76.92
2022-11-23T08:19:51.189Z,76.49
2022-11-23T08:22:23.699Z,76.00
2022-11-23T08:24:57.941Z,76.00
2022-11-23T08:27:30.494Z,76.14
2022-11-23T08:30:03.125Z,76.25
2022-11-23T08:32:36.417Z,76.78
2022-11-23T08:35:09.134Z,76.63
2022-11-23T08:37:41.763Z,76.79
2022-11-23T08:40:20.660Z,76.11
2022-11-23T08:42:56.287Z,75.92
2022-11-23T08:45:29.138Z,76.21
2022-11-23T08:48:02.059Z,76.11
2022-11-23T08:50:35.526Z,75.75
2022-11-23T08:53:08.325Z,76.19
2022-11-23T08:55:42.199Z,76.17
2022-11-23T08:58:14.787Z,76.68
2022-11-23T09:00:47.813Z,76.47
2022-11-23T09:03:20.512Z,76.58
2022-11-23T09:05:54.532Z,76.80
2022-11-23T09:08:27.072Z,76.13
2022-11-23T09:11:02.015Z,76.61
2022-11-23T09:13:36.961Z,76.40
2022-11-23T09:16:09.763Z,76.37
2022-11-23T09:18:42.804Z,76.42
2022-11-23T09:21:15.529Z,76.08
2022-11-23T09:23:48.091Z,75.96
2022-11-23T09:26:22.033Z,75.72
2022-11-23T09:28:54.854Z,76.01
2022-11-23T09:31:28.882Z,75.72
2022-11-23T09:34:02.017Z,75.61
2022-11-23T09:36:34.703Z,75.42
2022-11-23T09:39:07.282Z,75.21
2022-11-23T09:42:02.524Z,75.92
2022-11-23T09:44:43.166Z,75.77
2022-11-23T09:47:24.884Z,76.24
2022-11-23T09:50:03.070Z,76.32
2022-11-23T09:52:36.403Z,75.74
2022-11-23T09:55:14.783Z,75.78
2022-11-23T09:57:50.163Z,75.77
2022-11-23T10:00:23.700Z,75.48
2022-11-23T10:02:56.215Z,75.76
2022-11-23T10:05:32.682Z,75.39
2022-11-23T10:08:07.522Z,76.28
2022-11-23T10:10:42.544Z,76.16
2022-11-23T10:13:27.545Z,75.52
2022-11-23T10:16:09.740Z,75.29
2022-11-23T10:18:48.256Z,75.28
2022-11-23T10:21:26.216Z,75.77
2022-11-23T10:24:05.699Z,75.36
2022-11-23T10:26:40.439Z,74.76
2022-11-23T10:29:16.658Z,74.98
2022-11-23T10:31:55.481Z,75.51
2022-11-23T10:34:44.180Z,75.68
2022-11-23T10:37:17.543Z,74.57
2022-11-23T10:39:50.190Z,75.32
2022-11-23T10:42:25.625Z,75.21
2022-11-23T10:45:00.676Z,75.15
2022-11-23T10:47:38.180Z,75.15
2022-11-23T10:50:25.242Z,74.90
2022-11-23T10:52:59.212Z,74.82
2022-11-23T10:55:33.138Z,75.24
2022-11-23T10:58:05.979Z,75.03
2022-11-23T11:00:43.758Z,75.00
2022-11-23T11:03:23.653Z,74.92
2022-11-23T11:06:13.919Z,74.68
2022-11-23T11:08:50.853Z,75.09
2022-11-23T11:11:25.308Z,75.38
2022-11-23T11:14:05.514Z,74.66
2022-11-23T11:16:47.786Z,74.93
2022-11-23T11:19:27.343Z,74.77
2022-11-23T11:22:01.166Z,74.46
2022-11-23T11:24:35.369Z,74.02
2022-11-23T11:27:14.418Z,74.22
2022-11-23T11:29:48.640Z,74.33
2022-11-23T11:32:26.821Z,74.13
2022-11-23T11:35:02.497Z,74.29
2022-11-23T11:37:37.204Z,74.36
2022-11-23T11:40:14.957Z,73.96
2022-11-23T11:42:51.567Z,74.73
2022-11-23T11:45:26.530Z,74.68
2022-11-23T11:48:04.215Z,74.58
2022-11-23T11:50:39.949Z,74.68
2022-11-23T11:53:14.946Z,74.96
2022-11-23T11:55:50.802Z,74.45
2022-11-23T11:58:25.271Z,74.75
2022-11-23T12:01:01.312Z,74.57
2022-11-23T12:03:39.114Z,74.23
2022-11-23T12:06:14.152Z,74.31
2022-11-23T12:08:49.986Z,74.75
2022-11-23T12:11:23.011Z,74.99
2022-11-23T12:14:02.749Z,74.26
2022-11-23T12:16:41.207Z,74.88
2022-11-23T12:19:18.666Z,74.58
2022-11-23T12:22:07.675Z,74.68
2022-11-23T12:24:54.746Z,75.14
2022-11-23T12:27:32.441Z,74.23
2022-11-23T12:30:16.351Z,74.38
2022-11-23T12:32:59.522Z,74.29
2022-11-23T12:35:47.142Z,74.84
2022-11-23T12:38:26.858Z,75.06
2022-11-23T12:41:08.112Z,74.98
2022-11-23T12:43:47.944Z,75.17
2022-11-23T12:46:25.346Z,75.33
2022-11-23T12:49:03.816Z,75.57
2022-11-23T12:51:46.578Z,75.69
2022-11-23T12:54:39.157Z,75.70
2022-11-23T12:57:16.562Z,75.47
2022-11-23T12:59:52.298Z,75.73
2022-11-23T13:02:43.629Z,76.25
2022-11-23T13:05:28.083Z,76.37
2022-11-23T13:08:07.756Z,76.11
2022-11-23T13:10:46.557Z,75.67
2022-11-23T13:13:27.356Z,75.99
2022-11-23T13:16:15.777Z,76.20
2022-11-23T13:19:01.575Z,76.00
2022-11-23T13:21:38.439Z,75.93
2022-11-23T13:24:35.281Z,75.54
2022-11-23T13:27:32.421Z,76.04
2022-11-23T13:30:10.994Z,76.19
2022-11-23T13:32:55.042Z,76.37
2022-11-23T13:35:46.158Z,76.22
2022-11-23T13:38:19.682Z,76.36
2022-11-23T13:40:52.445Z,76.14
2022-11-23T13:43:29.551Z,76.49
2022-11-23T13:46:28.810Z,76.82
2022-11-23T13:49:01.676Z,76.73
2022-11-23T13:51:35.967Z,76.08
2022-11-23T13:54:22.149Z,76.43
2022-11-23T13:56:58.774Z,76.18
2022-11-23T13:59:34.748Z,76.22
2022-11-23T14:02:28.526Z,76.37
2022-11-23T14:05:19.967Z,76.10
2022-11-23T14:07:53.106Z,76.58
2022-11-23T14:10:26.706Z,77.26
2022-11-23T14:13:02.013Z,76.86
2022-11-23T14:15:37.890Z,76.66
2022-11-23T14:18:37.228Z,77.01
2022-11-23T14:21:14.046Z,76.36
2022-11-23T14:23:53.797Z,76.85
2022-11-23T14:26:34.858Z,76.08
2022-11-23T14:29:18.477Z,76.41
2022-11-23T14:32:02.143Z,76.62
2022-11-23T14:34:37.388Z,76.17
2022-11-23T14:37:15.597Z,76.18
2022-11-23T14:39:59.457Z,77.03
2022-11-23T14:42:33.071Z,77.06
2022-11-23T14:45:08.050Z,77.10
2022-11-23T14:47:42.328Z,77.11
2022-11-23T14:50:25.388Z,76.50
2022-11-23T14:53:00.248Z,76.30
2022-11-23T14:55:35.038Z,76.64
2022-11-23T14:58:09.100Z,76.49
2022-11-23T15:00:43.458Z,76.91
2022-11-23T15:03:49.888Z,76.57
2022-11-23T15:06:15.799Z,76.36
2022-11-23T15:08:54.115Z,76.80
2022-11-23T15:11:29.261Z,76.89
2022-11-23T15:14:05.612Z,77.26
2022-11-23T15:16:44.881Z,76.64
2022-11-23T15:19:28.500Z,77.03
2022-11-23T15:22:01.451Z,76.47
2022-11-23T15:24:35.107Z,76.54
2022-11-23T15:27:12.729Z,76.90
2022-11-23T15:29:52.482Z,76.84
2022-11-23T15:32:32.041Z,76.84
2022-11-23T15:35:13.404Z,76.63
2022-11-23T15:37:47.256Z,77.02
2022-11-23T15:40:23.519Z,76.94
2022-11-23T15:43:00.220Z,76.54
2022-11-23T15:45:36.696Z,76.69
2022-11-23T15:48:12.060Z,77.08
2022-11-23T15:50:55.111Z,76.83
2022-11-23T15:53:31.436Z,76.95
2022-11-23T15:56:05.845Z,76.84
2022-11-23T15:58:51.841Z,77.07
2022-11-23T16:01:26.012Z,76.91
2022-11-23T16:04:05.057Z,77.16
2022-11-23T16:06:44.534Z,76.83
2022-11-23T16:09:53.946Z,76.70
2022-11-23T16:12:28.797Z,76.48
2022-11-23T16:15:18.267Z,76.41
2022-11-23T16:17:51.723Z,76.74
2022-11-23T16:20:26.327Z,76.34
2022-11-23T16:23:01.569Z,76.37
2022-11-23T16:25:34.940Z,76.45
2022-11-23T16:28:16.148Z,76.60
2022-11-23T16:30:49.103Z,76.38
2022-11-23T16:33:22.183Z,76.11
2022-11-23T16:35:55.104Z,76.11
2022-11-23T16:38:33.604Z,76.20
2022-11-23T16:41:06.368Z,76.02
2022-11-23T16:43:39.146Z,75.54
2022-11-23T16:46:13.847Z,75.90
2022-11-23T16:48:46.948Z,75.98
2022-11-23T16:51:19.844Z,75.86
2022-11-23T16:54:13.029Z,76.13
2022-11-23T16:56:49.903Z,75.92
2022-11-23T16:59:23.986Z,76.33
2022-11-23T17:02:00.454Z,75.99
2022-11-23T17:04:35.504Z,76.43
2022-11-23T17:07:08.865Z,75.94
2022-11-23T17:09:42.926Z,76.20
2022-11-23T17:12:16.967Z,76.16
2022-11-23T17:14:50.615Z,76.48
2022-11-23T17:17:26.920Z,76.02
2022-11-23T17:20:04.708Z,76.91
2022-11-23T17:22:40.642Z,76.20
2022-11-23T17:25:15.441Z,76.54
2022-11-23T17:27:48.546Z,77.01
2022-11-23T17:30:22.095Z,76.57
2022-11-23T17:32:55.191Z,76.57
2022-11-23T17:35:30.016Z,76.17
2022-11-23T17:38:09.527Z,76.09
2022-11-23T17:40:47.243Z,75.89
2022-11-23T17:43:25.510Z,76.33
2022-11-23T17:46:00.481Z,76.59
2022-11-23T17:48:34.024Z,76.35
2022-11-23T17:51:15.247Z,76.41
2022-11-23T17:54:00.835Z,76.56
2022-11-23T17:56:36.789Z,76.28
2022-11-23T17:59:10.271Z,76.53
2022-11-23T18:01:43.328Z,76.88
2022-11-23T18:04:16.255Z,76.44
2022-11-23T18:06:50.810Z,76.35
2022-11-23T18:09:23.763Z,76.39
2022-11-23T18:11:58.034Z,76.23
2022-11-23T18:14:30.869Z,76.53
2022-11-23T18:17:03.792Z,76.64
2022-11-23T18:19:39.108Z,76.35
2022-11-23T18:22:13.654Z,76.49
2022-11-23T18:24:47.381Z,76.75
2022-11-23T18:27:24.368Z,76.41
2022-11-23T18:29:57.472Z,76.74
2022-11-23T18:32:30.338Z,76.49
2022-11-23T18:35:05.243Z,76.48
2022-11-23T18:37:41.115Z,75.93
2022-11-23T18:40:15.487Z,75.90
2022-11-23T18:42:49.667Z,75.95
2022-11-23T18:45:24.732Z,75.93
2022-11-23T18:47:57.449Z,75.84
2022-11-23T18:50:30.155Z,74.97
2022-11-23T18:53:02.871Z,76.04
2022-11-23T18:55:38.035Z,75.09
2022-11-23T18:58:16.697Z,75.67
2022-11-23T19:00:50.155Z,75.52
2022-11-23T19:03:23.238Z,75.88
2022-11-23T19:06:02.265Z,75.53
2022-11-23T19:08:41.753Z,75.90
2022-11-23T19:11:18.135Z,75.60
2022-11-23T19:13:53.054Z,75.52
2022-11-23T19:16:26.970Z,75.81
2022-11-23T19:19:01.802Z,75.55
2022-11-23T19:21:43.312Z,75.71
2022-11-23T19:24:18.430Z,75.92
2022-11-23T19:26:56.911Z,75.42
2022-11-23T19:29:31.260Z,75.06
2022-11-23T19:32:08.323Z,75.73
2022-11-23T19:34:43.424Z,75.73
2022-11-23T19:37:18.905Z,75.43
2022-11-23T19:39:51.622Z,75.14
2022-11-23T19:42:24.342Z,75.39
2022-11-23T19:44:59.366Z,75.59
2022-11-23T19:47:34.614Z,75.25
2022-11-23T19:50:07.672Z,75.17
2022-11-23T19:53:10.014Z,75.59
2022-11-23T19:55:33.195Z,75.31
2022-11-23T19:58:05.765Z,76.11
2022-11-23T20:00:40.408Z,76.04
2022-11-23T20:03:17.594Z,76.10
2022-11-23T20:05:56.806Z,75.98
2022-11-23T20:08:29.760Z,76.22
2022-11-23T20:11:07.506Z,75.99
2022-11-23T20:13:42.892Z,76.09
2022-11-23T20:16:20.082Z,75.83
2022-11-23T20:18:59.127Z,76.63
2022-11-23T20:21:32.525Z,76.63
2022-11-23T20:24:06.472Z,76.10
2022-11-23T20:26:39.387Z,75.93
2022-11-23T20:29:16.446Z,76.54
2022-11-23T20:31:51.624Z,75.92
2022-11-23T20:34:26.430Z,76.09
2022-11-23T20:37:00.981Z,76.64
2022-11-23T20:39:38.015Z,76.49
2022-11-23T20:42:11.743Z,76.21
2022-11-23T20:44:44.627Z,76.63
2022-11-23T20:47:22.424Z,76.68
2022-11-23T20:49:55.318Z,76.65
2022-11-23T20:52:28.055Z,76.69
2022-11-23T20:55:00.688Z,76.79
2022-11-23T20:57:34.547Z,76.57
2022-11-23T21:00:10.806Z,76.68
2022-11-23T21:02:45.308Z,76.87
2022-11-23T21:05:21.561Z,76.15
2022-11-23T21:07:54.454Z,76.25
2022-11-23T21:10:44.529Z,76.52
2022-11-23T21:13:49.335Z,76.18
2022-11-23T21:16:25.006Z,76.39
2022-11-23T21:19:00.957Z,76.48
2022-11-23T21:21:33.869Z,76.31
2022-11-23T21:24:07.875Z,76.37
2022-11-23T21:26:40.693Z,75.98
2022-11-23T21:29:16.556Z,76.46
2022-11-23T21:31:49.982Z,76.27
2022-11-23T21:34:25.819Z,76.29
2022-11-23T21:36:58.534Z,76.34
2022-11-23T21:39:33.097Z,76.08
2022-11-23T21:42:05.747Z,75.93
2022-11-23T21:44:38.239Z,76.17
2022-11-23T21:47:10.844Z,76.34
2022-11-23T21:49:44.888Z,76.04
2022-11-23T21:52:18.865Z,76.20
2022-11-23T21:54:51.429Z,76.04
2022-11-23T21:57:24.126Z,75.99
2022-11-23T21:59:57.110Z,76.00
2022-11-23T22:02:29.736Z,76.12
2022-11-23T22:05:03.922Z,76.20
2022-11-23T22:07:36.684Z,76.25
2022-11-23T22:10:09.723Z,75.83
2022-11-23T22:12:42.506Z,76.22
2022-11-23T22:15:15.499Z,76.23
2022-11-23T22:17:48.199Z,76.31
2022-11-23T22:20:22.269Z,76.68
2022-11-23T22:22:54.896Z,76.32
2022-11-23T22:25:27.646Z,76.13
2022-11-23T22:28:00.774Z,76.20
2022-11-23T22:30:39.519Z,76.56
2022-11-23T22:33:13.404Z,76.39
2022-11-23T22:35:47.426Z,75.98
2022-11-23T22:38:20.470Z,76.36
2022-11-23T22:40:53.468Z,76.25
2022-11-23T22:43:26.259Z,76.40
2022-11-23T22:46:05.511Z,76.45
2022-11-23T22:48:38.883Z,75.78
2022-11-23T22:51:13.812Z,75.87
2022-11-23T22:53:46.840Z,76.00
2022-11-23T22:56:20.275Z,75.91
2022-11-23T22:58:52.976Z,75.76
2022-11-23T23:01:28.022Z,75.91
2022-11-23T23:04:04.271Z,75.65
2022-11-23T23:06:38.947Z,75.60
2022-11-23T23:09:11.731Z,76.00
2022-11-23T23:11:44.469Z,75.66
2022-11-23T23:14:17.597Z,75.69
2022-11-23T23:16:50.643Z,75.84
2022-11-23T23:19:25.948Z,75.83
2022-11-23T23:22:00.016Z,75.34
2022-11-23T23:24:33.257Z,75.37
2022-11-23T23:27:06.036Z,75.55
2022-11-23T23:29:39.606Z,75.34
2022-11-23T23:32:13.824Z,75.21
2022-11-23T23:34:46.635Z,75.20
2022-11-23T23:37:21.280Z,75.60
2022-11-23T23:39:53.878Z,76.19
2022-11-23T23:42:26.680Z,75.98
2022-11-23T23:44:59.650Z,75.91
2022-11-23T23:47:32.832Z,76.06
2022-11-23T23:50:05.869Z,76.03
2022-11-23T23:52:40.643Z,75.76
2022-11-23T23:55:13.334Z,75.91
2022-11-23T23:57:45.954Z,75.74
